Terminal Aerodrome Forecast
Issued by NWS Grand Forks, ND

Home | Current Version | Previous Version | Graphics & Text | Print | Product List | Glossary On
Versions: 1 2 3 4 5 6 7 8 9 10 11 12 13 14 15
707
FTUS43 KFGF 201421 AAB
TAFFAR
TAF AMD
KFAR 201421Z 2014/2112 15011KT 5SM BR OVC005
      TEMPO 2015/2016 P6SM NSW SCT009 SCT250
     FM201600 15010KT P6SM SCT250=

USA.gov is the U.S. government's official web portal to all federal, state and local government web resources and services.